CYVM/YVM METAR and TAF weather

Enter ICAO airport designator
Station Type Date Time Source
CYVM METAR 2021/10/22 19:00 UTC NOAA

CYVM 221900Z 22005KT 15SM FEW100 BKN140 M01/M05 A2984 RMK AC1AC6 VIA CYXU SLP106


Station Type Date Time Source
CYVM Decoded METAR 2021/10/22 19:00 UTC NOAA

Broughton Island Airport, Canada (CYVM) 67-33N 064-02W
Oct 22, 2021 - 03:00 PM EDT / 2021.10.22 1900 UTC
Wind: from the SW (220 degrees) at 6 MPH (5 KT):0
Visibility: 15 mile(s):0
Sky conditions: mostly cloudy
Temperature: 30 F (-1 C)
Windchill: 23 F (-5 C):1
Dew Point: 23 F (-5 C)
Relative Humidity: 74%
Pressure (altimeter): 29.84 in. Hg (1010 hPa)
ob: CYVM 221900Z 22005KT 15SM FEW100 BKN140 M01/M05 A2984 RMK AC1AC6 VIA CYXU SLP106
cycle: 19

Station Type Date Time Source
CYVM TAF 2021/10/22 19:42 UTC NOAA

TAF TAF CYVM 221838Z 2219/2307 20005KT P6SM SCT090 BKN140
TEMPO 2219/2221 SCT060 BKN090
BECMG 2219/2221 32005KT
FM222100 32005KT P6SM SCT060 BKN090
TEMPO 2221/2303 BKN060
FM230300 32005KT P6SM SCT010 BKN040
TEMPO 2303/2307 4SM -SN FEW008 BKN010
RMK NXT FCST BY 230100Z

Example: see airport list